createdAt,value
2022-12-22T00:02:21.810Z,96.78
2022-12-22T00:05:08.481Z,96.15
2022-12-22T00:07:53.852Z,96.58
2022-12-22T00:10:39.849Z,97.70
2022-12-22T00:13:30.575Z,96.58
2022-12-22T00:16:16.045Z,97.59
2022-12-22T00:19:01.747Z,97.39
2022-12-22T00:21:49.753Z,97.82
2022-12-22T00:24:34.996Z,97.34
2022-12-22T00:27:20.344Z,97.56
2022-12-22T00:30:06.251Z,97.66
2022-12-22T00:32:55.644Z,97.73
2022-12-22T00:35:44.334Z,97.48
2022-12-22T00:38:38.691Z,97.12
2022-12-22T00:41:24.551Z,97.82
2022-12-22T00:44:10.314Z,97.66
2022-12-22T00:46:59.487Z,97.44
2022-12-22T00:49:47.202Z,97.55
2022-12-22T00:52:33.538Z,97.72
2022-12-22T00:55:19.294Z,97.49
2022-12-22T00:58:04.839Z,97.84
2022-12-22T01:00:50.210Z,98.00
2022-12-22T01:03:35.755Z,98.12
2022-12-22T01:06:22.134Z,97.95
2022-12-22T01:09:07.539Z,98.20
2022-12-22T01:11:53.648Z,97.94
2022-12-22T01:14:38.985Z,97.71
2022-12-22T01:17:24.635Z,97.62
2022-12-22T01:20:10.132Z,96.88
2022-12-22T01:22:55.681Z,96.79
2022-12-22T01:25:41.413Z,97.46
2022-12-22T01:28:35.785Z,95.96
2022-12-22T01:31:35.948Z,96.91
2022-12-22T01:34:22.348Z,97.00
2022-12-22T01:37:07.775Z,95.95
2022-12-22T01:39:53.285Z,96.05
2022-12-22T01:42:39.100Z,96.51
2022-12-22T01:45:37.108Z,96.45
2022-12-22T01:48:22.632Z,96.39
2022-12-22T01:51:08.142Z,96.82
2022-12-22T01:53:54.068Z,96.68
2022-12-22T01:56:39.570Z,96.08
2022-12-22T01:59:25.145Z,97.17
2022-12-22T02:02:11.078Z,96.34
2022-12-22T02:05:00.776Z,96.05
2022-12-22T02:08:41.399Z,96.88
2022-12-22T02:12:08.153Z,96.06
2022-12-22T02:15:32.821Z,95.86
2022-12-22T02:18:48.804Z,96.57
2022-12-22T02:22:20.289Z,96.05
2022-12-22T02:25:43.523Z,96.28
2022-12-22T02:28:50.029Z,95.47
2022-12-22T02:31:35.591Z,95.92
2022-12-22T02:34:21.157Z,94.98
2022-12-22T02:37:12.696Z,96.18
2022-12-22T02:40:27.171Z,95.32
2022-12-22T02:43:50.329Z,95.47
2022-12-22T02:46:40.017Z,95.90
2022-12-22T02:49:36.447Z,95.37
2022-12-22T02:52:31.139Z,95.92
2022-12-22T02:55:17.465Z,96.61
2022-12-22T02:58:03.240Z,95.83
2022-12-22T03:00:48.560Z,95.56
2022-12-22T03:03:34.584Z,96.06
2022-12-22T03:06:20.068Z,95.51
2022-12-22T03:09:05.599Z,96.01
2022-12-22T03:11:50.883Z,95.95
2022-12-22T03:14:36.268Z,95.75
2022-12-22T03:17:21.862Z,95.64
2022-12-22T03:20:07.552Z,95.25
2022-12-22T03:22:53.150Z,95.54
2022-12-22T03:25:38.738Z,95.93
2022-12-22T03:28:08.682Z,96.00
2022-12-22T03:30:36.166Z,96.32
2022-12-22T03:33:03.080Z,96.34
2022-12-22T03:35:30.057Z,96.23
2022-12-22T03:37:56.968Z,95.39
2022-12-22T03:40:23.904Z,96.42
2022-12-22T03:43:09.470Z,96.27
2022-12-22T03:45:55.017Z,96.71
2022-12-22T03:48:21.936Z,96.54
2022-12-22T03:50:48.812Z,96.03
2022-12-22T03:53:15.756Z,97.14
2022-12-22T03:55:42.644Z,96.76
2022-12-22T03:58:09.571Z,96.96
2022-12-22T04:00:36.523Z,97.49
2022-12-22T04:03:03.645Z,96.73
2022-12-22T04:05:30.687Z,97.01
2022-12-22T04:07:57.610Z,97.62
2022-12-22T04:10:42.954Z,98.10
2022-12-22T04:13:10.225Z,98.50
2022-12-22T04:15:37.133Z,97.55
2022-12-22T04:18:04.260Z,97.72
2022-12-22T04:20:31.283Z,98.30
2022-12-22T04:22:58.727Z,98.17
2022-12-22T04:25:26.983Z,98.19
2022-12-22T04:27:54.090Z,98.40
2022-12-22T04:30:21.312Z,98.17
2022-12-22T04:32:48.296Z,98.53
2022-12-22T04:35:15.240Z,98.26
2022-12-22T04:37:42.228Z,98.38
2022-12-22T04:40:09.599Z,98.80
2022-12-22T04:42:36.521Z,98.58
2022-12-22T04:45:03.825Z,97.91
2022-12-22T04:47:30.782Z,98.60
2022-12-22T04:49:57.745Z,98.22
2022-12-22T04:52:24.708Z,98.89
2022-12-22T04:54:51.696Z,98.55
2022-12-22T04:57:19.183Z,98.66
2022-12-22T04:59:46.150Z,98.48
2022-12-22T05:02:13.600Z,99.09
2022-12-22T05:04:40.684Z,98.46
2022-12-22T05:07:08.216Z,98.44
2022-12-22T05:09:35.177Z,98.52
2022-12-22T05:12:22.063Z,98.74
2022-12-22T05:14:49.037Z,98.65
2022-12-22T05:17:16.052Z,98.98
2022-12-22T05:19:43.074Z,98.76
2022-12-22T05:22:10.035Z,98.80
2022-12-22T05:24:36.997Z,99.08
2022-12-22T05:27:03.954Z,98.37
2022-12-22T05:29:30.939Z,98.62
2022-12-22T05:31:57.968Z,99.09
2022-12-22T05:34:25.016Z,99.14
2022-12-22T05:36:51.996Z,99.19
2022-12-22T05:39:19.532Z,98.93
2022-12-22T05:41:46.722Z,99.12
2022-12-22T05:44:13.692Z,99.12
2022-12-22T05:46:40.811Z,98.62
2022-12-22T05:49:07.823Z,98.22
2022-12-22T05:51:34.754Z,98.90
2022-12-22T05:54:01.676Z,99.24
2022-12-22T05:56:28.602Z,98.63
2022-12-22T05:58:55.534Z,99.61
2022-12-22T06:01:22.418Z,99.64
2022-12-22T06:03:53.282Z,98.38
2022-12-22T06:06:23.072Z,99.07
2022-12-22T06:08:49.987Z,99.26
2022-12-22T06:11:18.469Z,98.83
2022-12-22T06:13:46.373Z,98.91
2022-12-22T06:16:13.377Z,98.77
2022-12-22T06:18:40.332Z,98.63
2022-12-22T06:21:07.208Z,98.04
2022-12-22T06:23:34.154Z,98.16
2022-12-22T06:26:02.234Z,97.73
2022-12-22T06:28:29.808Z,98.61
2022-12-22T06:30:56.804Z,99.25
2022-12-22T06:33:23.925Z,98.03
2022-12-22T06:35:58.110Z,98.32
2022-12-22T06:38:28.004Z,98.59
2022-12-22T06:40:55.009Z,99.21
2022-12-22T06:43:22.006Z,99.21
2022-12-22T06:45:48.925Z,99.11
2022-12-22T06:48:15.939Z,99.09
2022-12-22T06:50:43.085Z,98.74
2022-12-22T06:53:11.299Z,98.64
2022-12-22T06:55:38.787Z,98.64
2022-12-22T06:58:05.935Z,98.71
2022-12-22T07:00:33.154Z,99.17
2022-12-22T07:03:00.632Z,98.68
2022-12-22T07:05:27.695Z,99.52
2022-12-22T07:07:54.808Z,99.17
2022-12-22T07:10:41.681Z,99.47
2022-12-22T07:13:19.777Z,99.38
2022-12-22T07:15:55.640Z,99.51
2022-12-22T07:18:27.074Z,99.49
2022-12-22T07:20:54.543Z,99.61
2022-12-22T07:23:21.491Z,99.59
2022-12-22T07:25:48.433Z,99.60
2022-12-22T07:28:20.632Z,99.39
2022-12-22T07:30:49.452Z,98.91
2022-12-22T07:33:17.200Z,99.95
2022-12-22T07:35:44.172Z,99.42
2022-12-22T07:38:11.362Z,98.44
2022-12-22T07:40:42.102Z,98.10
2022-12-22T07:43:09.972Z,97.34
2022-12-22T07:45:36.868Z,96.81
2022-12-22T07:48:28.222Z,96.27
2022-12-22T07:51:01.819Z,96.79
2022-12-22T07:53:28.769Z,95.95
2022-12-22T07:55:55.919Z,95.15
2022-12-22T07:58:22.825Z,96.09
2022-12-22T08:00:49.755Z,95.92
2022-12-22T08:03:16.709Z,94.77
2022-12-22T08:05:44.739Z,94.52
2022-12-22T08:08:11.741Z,95.64
2022-12-22T08:10:38.653Z,95.29
2022-12-22T08:13:05.631Z,95.59
2022-12-22T08:15:32.585Z,96.14
2022-12-22T08:17:59.542Z,95.36
2022-12-22T08:20:26.557Z,94.80
2022-12-22T08:22:53.475Z,94.31
2022-12-22T08:25:20.457Z,94.58
2022-12-22T08:27:53.855Z,94.42
2022-12-22T08:30:20.815Z,94.19
2022-12-22T08:32:50.251Z,93.44
2022-12-22T08:35:17.415Z,91.99
2022-12-22T08:37:46.927Z,93.50
2022-12-22T08:40:19.700Z,93.00
2022-12-22T08:42:49.135Z,91.83
2022-12-22T08:45:16.147Z,93.13
2022-12-22T08:47:43.127Z,92.62
2022-12-22T08:50:10.311Z,92.44
2022-12-22T08:52:37.411Z,92.18
2022-12-22T08:55:04.938Z,91.98
2022-12-22T08:57:31.883Z,91.16
2022-12-22T08:59:59.043Z,92.30
2022-12-22T09:02:26.097Z,92.23
2022-12-22T09:04:53.046Z,92.95
2022-12-22T09:07:19.987Z,92.28
2022-12-22T09:09:47.075Z,91.08
2022-12-22T09:12:14.132Z,93.42
2022-12-22T09:14:41.154Z,93.38
2022-12-22T09:17:09.406Z,94.32
2022-12-22T09:19:36.654Z,93.98
2022-12-22T09:22:03.985Z,93.97
2022-12-22T09:24:30.911Z,93.62
2022-12-22T09:26:57.797Z,93.15
2022-12-22T09:29:24.710Z,93.78
2022-12-22T09:31:51.655Z,94.23
2022-12-22T09:34:18.988Z,94.19
2022-12-22T09:36:46.609Z,94.22
2022-12-22T09:39:13.588Z,93.52
2022-12-22T09:41:58.021Z,92.43
2022-12-22T09:44:28.707Z,92.43
2022-12-22T09:47:00.062Z,92.99
2022-12-22T09:49:27.639Z,92.27
2022-12-22T09:52:00.697Z,90.35
2022-12-22T09:54:29.390Z,90.79
2022-12-22T09:56:57.162Z,89.32
2022-12-22T09:59:28.141Z,89.54
2022-12-22T10:02:13.420Z,89.72
2022-12-22T10:05:17.519Z,90.04
2022-12-22T10:07:44.799Z,87.81
2022-12-22T10:10:28.565Z,88.85
2022-12-22T10:12:58.900Z,88.94
2022-12-22T10:15:26.525Z,88.23
2022-12-22T10:18:15.009Z,89.46
2022-12-22T10:20:45.031Z,89.10
2022-12-22T10:23:27.344Z,89.94
2022-12-22T10:28:48.421Z,88.18
2022-12-22T10:31:21.881Z,88.32
2022-12-22T10:33:52.652Z,86.33
2022-12-22T10:36:30.943Z,87.91
2022-12-22T10:39:07.821Z,87.97
2022-12-22T10:41:44.478Z,89.01
2022-12-22T10:44:17.347Z,87.75
2022-12-22T10:46:49.367Z,86.01
2022-12-22T10:49:21.929Z,87.79
2022-12-22T10:51:56.295Z,85.65
2022-12-22T10:54:31.040Z,87.68
2022-12-22T10:57:25.338Z,86.73
2022-12-22T10:59:55.022Z,86.97
2022-12-22T11:02:22.915Z,87.14
2022-12-22T11:04:51.345Z,86.20
2022-12-22T11:07:19.013Z,86.35
2022-12-22T11:09:46.057Z,85.87
2022-12-22T11:12:34.347Z,84.86
2022-12-22T11:15:47.657Z,85.11
2022-12-22T11:18:35.062Z,87.21
2022-12-22T11:21:18.653Z,83.54
2022-12-22T11:23:55.231Z,84.37
2022-12-22T11:26:48.501Z,85.68
2022-12-22T11:29:24.296Z,84.24
2022-12-22T11:32:06.074Z,84.70
2022-12-22T11:34:33.035Z,83.02
2022-12-22T11:37:28.814Z,85.96
2022-12-22T11:40:04.746Z,86.06
2022-12-22T11:43:02.415Z,86.56
2022-12-22T11:45:52.450Z,86.27
2022-12-22T11:48:54.035Z,88.10
2022-12-22T11:51:39.312Z,86.02
2022-12-22T11:54:33.106Z,86.43
2022-12-22T11:57:14.958Z,85.82
2022-12-22T11:59:51.074Z,86.38
2022-12-22T12:02:31.253Z,86.00
2022-12-22T12:05:40.453Z,87.25
2022-12-22T12:08:07.287Z,87.04
2022-12-22T12:10:49.236Z,87.96
2022-12-22T12:13:44.808Z,86.14
2022-12-22T12:16:30.216Z,87.26
2022-12-22T12:19:27.180Z,87.30
2022-12-22T12:22:09.161Z,86.64
2022-12-22T12:24:40.726Z,86.63
2022-12-22T12:27:37.876Z,86.36
2022-12-22T12:30:40.677Z,85.60
2022-12-22T12:33:19.365Z,87.31
2022-12-22T12:35:49.245Z,87.69
2022-12-22T12:39:06.222Z,87.67
2022-12-22T12:41:29.225Z,87.94
2022-12-22T12:43:58.356Z,88.19
2022-12-22T12:46:40.507Z,86.78
2022-12-22T12:49:36.526Z,88.27
2022-12-22T12:52:04.829Z,89.47
2022-12-22T12:54:47.905Z,88.50
2022-12-22T12:57:30.637Z,90.56
2022-12-22T13:00:00.588Z,88.03
2022-12-22T13:02:27.889Z,85.43
2022-12-22T13:05:14.656Z,86.85
2022-12-22T13:08:12.638Z,87.12
2022-12-22T13:10:53.157Z,87.01
2022-12-22T13:13:26.165Z,88.01
2022-12-22T13:16:02.503Z,88.72
2022-12-22T13:18:29.594Z,87.62
2022-12-22T13:24:22.803Z,89.08
2022-12-22T13:26:44.794Z,88.72
2022-12-22T13:29:39.935Z,90.20
2022-12-22T13:32:20.555Z,90.36
2022-12-22T13:37:49.558Z,91.42
2022-12-22T13:40:25.810Z,90.76
2022-12-22T13:42:54.549Z,90.22
2022-12-22T13:45:36.626Z,90.88
2022-12-22T13:48:09.893Z,91.01
2022-12-22T13:50:43.019Z,91.03
2022-12-22T13:53:41.601Z,91.10
2022-12-22T13:56:07.849Z,91.53
2022-12-22T13:58:39.403Z,91.79
2022-12-22T14:01:12.455Z,92.64
2022-12-22T14:04:03.100Z,91.99
2022-12-22T14:06:34.350Z,92.61
2022-12-22T14:09:19.769Z,92.65
2022-12-22T14:11:52.112Z,93.54
2022-12-22T14:14:29.625Z,93.89
2022-12-22T14:17:00.743Z,92.83
2022-12-22T14:19:34.080Z,94.07
2022-12-22T14:22:08.667Z,94.51
2022-12-22T14:24:43.585Z,94.82
2022-12-22T14:27:24.022Z,94.76
2022-12-22T14:29:51.362Z,95.20
2022-12-22T14:32:57.876Z,94.24
2022-12-22T14:35:31.369Z,94.98
2022-12-22T14:38:07.169Z,95.37
2022-12-22T14:40:42.884Z,94.63
2022-12-22T14:43:18.797Z,94.26
2022-12-22T14:45:49.013Z,94.67
2022-12-22T14:48:33.314Z,94.82
2022-12-22T14:51:02.272Z,96.04
2022-12-22T14:53:44.732Z,95.53
2022-12-22T14:56:15.863Z,95.40
2022-12-22T14:58:44.721Z,96.08
2022-12-22T15:01:28.765Z,96.71
2022-12-22T15:04:01.097Z,94.91
2022-12-22T15:06:28.045Z,95.10
2022-12-22T15:09:12.160Z,94.78
2022-12-22T15:11:46.960Z,94.44
2022-12-22T15:14:17.763Z,95.75
2022-12-22T15:16:46.202Z,96.81
2022-12-22T15:19:16.625Z,97.02
2022-12-22T15:21:43.657Z,95.58
2022-12-22T15:24:16.902Z,95.83
2022-12-22T15:26:44.898Z,96.76
2022-12-22T15:29:12.363Z,97.01
2022-12-22T15:31:40.928Z,96.73
2022-12-22T15:34:16.891Z,97.65
2022-12-22T15:36:43.802Z,97.82
2022-12-22T15:39:18.315Z,97.93
2022-12-22T15:41:45.936Z,97.93
2022-12-22T15:44:13.328Z,97.94
2022-12-22T15:46:43.518Z,97.73
2022-12-22T15:49:24.055Z,98.28
2022-12-22T15:51:55.965Z,98.46
2022-12-22T15:54:23.434Z,97.97
2022-12-22T15:56:52.679Z,97.69
2022-12-22T15:59:29.704Z,97.91
2022-12-22T16:02:01.317Z,98.34
2022-12-22T16:04:29.255Z,98.43
2022-12-22T16:06:57.287Z,98.48
2022-12-22T16:09:27.816Z,98.41
2022-12-22T16:11:55.235Z,97.91
2022-12-22T16:14:23.192Z,97.90
2022-12-22T16:16:50.567Z,97.42
2022-12-22T16:19:19.372Z,97.72
2022-12-22T16:21:50.865Z,96.87
2022-12-22T16:24:33.431Z,97.71
2022-12-22T16:27:01.580Z,96.58
2022-12-22T16:29:28.686Z,97.24
2022-12-22T16:32:17.601Z,97.13
2022-12-22T16:34:45.163Z,97.92
2022-12-22T16:37:12.138Z,97.12
2022-12-22T16:39:39.120Z,96.25
2022-12-22T16:42:12.479Z,96.58
2022-12-22T16:44:47.980Z,96.26
2022-12-22T16:47:22.750Z,96.52
2022-12-22T16:49:50.564Z,96.10
2022-12-22T16:52:20.535Z,96.19
2022-12-22T16:54:52.609Z,96.30
2022-12-22T16:57:19.922Z,96.70
2022-12-22T16:59:47.150Z,95.95
2022-12-22T17:02:20.689Z,95.52
2022-12-22T17:04:48.170Z,95.84
2022-12-22T17:07:15.281Z,95.33
2022-12-22T17:09:53.069Z,95.25
2022-12-22T17:12:27.778Z,95.08
2022-12-22T17:14:56.323Z,95.54
2022-12-22T17:17:30.835Z,95.62
2022-12-22T17:19:58.951Z,95.14
2022-12-22T17:22:31.562Z,95.02
2022-12-22T17:25:02.401Z,94.88
2022-12-22T17:27:33.879Z,95.23
2022-12-22T17:30:05.737Z,95.09
2022-12-22T17:32:32.666Z,94.96
2022-12-22T17:34:59.562Z,94.96
2022-12-22T17:37:26.815Z,95.10
2022-12-22T17:40:00.435Z,95.18
2022-12-22T17:42:27.584Z,94.87
2022-12-22T17:44:54.555Z,94.67
2022-12-22T17:47:30.569Z,94.60
2022-12-22T17:49:59.324Z,94.70
2022-12-22T17:52:28.307Z,94.37
2022-12-22T17:54:55.569Z,94.57
2022-12-22T17:57:33.656Z,94.55
2022-12-22T18:00:00.982Z,94.71
2022-12-22T18:02:28.234Z,94.00
2022-12-22T18:04:55.344Z,94.67
2022-12-22T18:07:24.960Z,94.65
2022-12-22T18:09:59.194Z,93.94
2022-12-22T18:12:26.306Z,94.32
2022-12-22T18:14:53.536Z,93.88
2022-12-22T18:17:26.221Z,94.34
2022-12-22T18:19:55.524Z,93.35
2022-12-22T18:22:28.596Z,92.91
2022-12-22T18:24:56.890Z,93.57
2022-12-22T18:27:23.945Z,92.59
2022-12-22T18:29:50.962Z,92.57
2022-12-22T18:32:26.266Z,92.49
2022-12-22T18:34:54.581Z,92.83
2022-12-22T18:37:21.703Z,92.70
2022-12-22T18:39:48.683Z,92.40
2022-12-22T18:42:21.743Z,92.37
2022-12-22T18:44:49.355Z,93.18
2022-12-22T18:47:16.577Z,92.36
2022-12-22T18:49:44.088Z,92.86
2022-12-22T18:52:25.015Z,92.12
2022-12-22T18:54:51.908Z,92.47
2022-12-22T18:57:20.455Z,92.08
2022-12-22T18:59:49.040Z,92.50
2022-12-22T19:02:23.722Z,93.12
2022-12-22T19:04:51.009Z,92.77
2022-12-22T19:07:20.542Z,93.00
2022-12-22T19:09:47.851Z,92.72
2022-12-22T19:12:17.937Z,92.39
2022-12-22T19:14:47.978Z,93.03
2022-12-22T19:17:19.478Z,92.88
2022-12-22T19:19:46.456Z,92.56
2022-12-22T19:22:14.413Z,91.66
2022-12-22T19:24:45.741Z,93.88
2022-12-22T19:27:23.229Z,93.95
2022-12-22T19:29:54.719Z,94.67
2022-12-22T19:32:30.392Z,94.98
2022-12-22T19:34:57.382Z,93.01
2022-12-22T19:37:24.445Z,92.91
2022-12-22T19:39:51.378Z,93.79
2022-12-22T19:42:22.378Z,94.81
2022-12-22T19:44:49.604Z,92.95
2022-12-22T19:47:24.617Z,93.42
2022-12-22T19:49:51.588Z,93.75
2022-12-22T19:52:18.494Z,94.57
2022-12-22T19:54:45.372Z,95.36
2022-12-22T19:57:22.699Z,95.36
2022-12-22T19:59:52.552Z,94.88
2022-12-22T20:02:22.601Z,95.11
2022-12-22T20:04:50.064Z,95.34
2022-12-22T20:07:18.970Z,95.29
2022-12-22T20:09:46.030Z,94.88
2022-12-22T20:12:35.895Z,95.06
2022-12-22T20:15:20.017Z,95.34
2022-12-22T20:17:49.397Z,95.77
2022-12-22T20:20:22.430Z,95.65
2022-12-22T20:22:55.955Z,96.15
2022-12-22T20:25:28.126Z,96.48
2022-12-22T20:27:56.854Z,96.55
2022-12-22T20:30:27.085Z,96.23
2022-12-22T20:32:54.772Z,96.82
2022-12-22T20:35:25.036Z,96.90
2022-12-22T20:37:51.951Z,97.12
2022-12-22T20:40:31.315Z,97.89
2022-12-22T20:42:58.746Z,97.77
2022-12-22T20:45:30.166Z,98.37
2022-12-22T20:47:59.948Z,98.30
2022-12-22T20:50:29.986Z,98.13
2022-12-22T20:52:57.427Z,98.90
2022-12-22T20:55:27.339Z,98.96
2022-12-22T20:57:54.944Z,98.97
2022-12-22T21:00:25.675Z,98.43
2022-12-22T21:02:53.897Z,98.85
2022-12-22T21:05:21.414Z,98.22
2022-12-22T21:07:49.587Z,98.84
2022-12-22T21:10:21.919Z,98.54
2022-12-22T21:12:49.975Z,98.82
2022-12-22T21:15:21.538Z,98.42
2022-12-22T21:17:54.423Z,99.12
2022-12-22T21:20:27.995Z,98.56
2022-12-22T21:22:55.011Z,99.15
2022-12-22T21:25:23.321Z,99.06
2022-12-22T21:27:51.907Z,98.77
2022-12-22T21:30:31.032Z,99.19
2022-12-22T21:32:58.648Z,99.31
2022-12-22T21:35:31.594Z,98.96
2022-12-22T21:37:59.305Z,99.18
2022-12-22T21:40:28.986Z,99.15
2022-12-22T21:42:56.977Z,99.40
2022-12-22T21:45:30.995Z,98.77
2022-12-22T21:48:01.204Z,99.61
2022-12-22T21:50:33.119Z,99.43
2022-12-22T21:53:00.692Z,98.74
2022-12-22T21:55:31.825Z,98.77
2022-12-22T21:57:59.917Z,98.57
2022-12-22T22:00:28.420Z,98.76
2022-12-22T22:02:56.450Z,98.93
2022-12-22T22:05:35.386Z,99.22
2022-12-22T22:08:04.615Z,98.71
2022-12-22T22:10:38.096Z,99.17
2022-12-22T22:13:05.938Z,98.51
2022-12-22T22:15:33.853Z,98.54
2022-12-22T22:18:06.561Z,98.70
2022-12-22T22:20:34.509Z,98.53
2022-12-22T22:23:01.841Z,99.30
2022-12-22T22:25:28.936Z,99.08
2022-12-22T22:27:59.978Z,98.70
2022-12-22T22:30:27.699Z,98.63
2022-12-22T22:32:55.735Z,98.38
2022-12-22T22:35:24.561Z,98.88
2022-12-22T22:37:51.873Z,99.08
2022-12-22T22:40:23.819Z,99.07
2022-12-22T22:42:50.755Z,99.44
2022-12-22T22:45:23.511Z,99.30
2022-12-22T22:47:51.644Z,99.26
2022-12-22T22:50:20.775Z,99.79
2022-12-22T22:52:48.461Z,99.96
2022-12-22T22:55:15.757Z,98.99
2022-12-22T22:57:43.358Z,98.79
2022-12-22T23:00:12.850Z,98.99
2022-12-22T23:02:39.976Z,99.09
2022-12-22T23:05:07.812Z,99.40
2022-12-22T23:07:36.053Z,98.38
2022-12-22T23:10:04.047Z,98.64
2022-12-22T23:12:31.252Z,99.21
2022-12-22T23:14:58.581Z,98.27
2022-12-22T23:17:27.643Z,98.47
2022-12-22T23:19:54.691Z,98.06
2022-12-22T23:22:21.639Z,97.89
2022-12-22T23:24:49.532Z,97.87
2022-12-22T23:27:17.693Z,98.03
2022-12-22T23:29:44.693Z,98.18
2022-12-22T23:32:11.610Z,98.23
2022-12-22T23:34:38.532Z,98.05
2022-12-22T23:37:05.536Z,98.31
2022-12-22T23:39:32.484Z,98.73
2022-12-22T23:41:59.442Z,98.14
2022-12-22T23:44:26.899Z,98.14
2022-12-22T23:46:53.938Z,98.59
2022-12-22T23:49:20.992Z,98.09
2022-12-22T23:51:47.962Z,98.68
2022-12-22T23:54:14.866Z,98.71
2022-12-22T23:56:41.959Z,98.60
2022-12-22T23:59:08.939Z,98.52
